createdAt,value
2022-09-13T00:01:33.231Z,2.60
2022-09-13T00:04:04.323Z,2.83
2022-09-13T00:06:33.310Z,2.77
2022-09-13T00:09:03.386Z,2.37
2022-09-13T00:11:33.604Z,2.30
2022-09-13T00:14:04.791Z,2.73
2022-09-13T00:16:35.950Z,2.57
2022-09-13T00:19:06.622Z,2.80
2022-09-13T00:21:39.977Z,3.10
2022-09-13T00:24:10.015Z,2.83
2022-09-13T00:26:38.222Z,2.80
2022-09-13T00:29:06.956Z,2.77
2022-09-13T00:31:37.917Z,2.70
2022-09-13T00:34:06.327Z,3.00
2022-09-13T00:36:34.707Z,3.10
2022-09-13T00:39:06.488Z,2.90
2022-09-13T00:41:39.722Z,2.47
2022-09-13T00:44:50.552Z,3.27
2022-09-13T00:47:23.238Z,2.80
2022-09-13T00:49:55.267Z,2.90
2022-09-13T00:52:28.905Z,2.30
2022-09-13T00:55:04.060Z,2.87
2022-09-13T00:57:36.656Z,2.80
2022-09-13T01:00:13.553Z,2.57
2022-09-13T01:02:45.614Z,2.87
2022-09-13T01:05:19.320Z,2.60
2022-09-13T01:07:48.482Z,2.60
2022-09-13T01:10:17.338Z,2.60
2022-09-13T01:12:53.372Z,2.70
2022-09-13T01:15:23.296Z,2.50
2022-09-13T01:17:56.587Z,2.50
2022-09-13T01:20:37.749Z,2.80
2022-09-13T01:23:35.741Z,2.60
2022-09-13T01:26:37.394Z,2.60
2022-09-13T01:29:48.648Z,3.00
2022-09-13T01:32:30.257Z,2.50
2022-09-13T01:35:11.630Z,2.90
2022-09-13T01:37:52.470Z,2.53
2022-09-13T01:40:33.160Z,1.93
2022-09-13T01:43:20.620Z,2.20
2022-09-13T01:45:58.032Z,2.27
2022-09-13T01:48:37.118Z,3.10
2022-09-13T01:51:12.866Z,2.80
2022-09-13T01:53:50.916Z,2.83
2022-09-13T01:56:24.820Z,2.40
2022-09-13T01:59:04.476Z,2.70
2022-09-13T02:01:37.749Z,2.80
2022-09-13T02:04:15.507Z,2.60
2022-09-13T02:06:51.220Z,2.83
2022-09-13T02:09:24.685Z,2.60
2022-09-13T02:12:00.415Z,2.83
2022-09-13T02:14:35.262Z,2.70
2022-09-13T02:17:10.675Z,2.70
2022-09-13T02:19:49.910Z,3.30
2022-09-13T02:22:22.377Z,2.70
2022-09-13T02:25:02.768Z,3.00
2022-09-13T02:27:35.139Z,2.77
2022-09-13T02:30:07.627Z,3.10
2022-09-13T02:32:42.324Z,2.80
2022-09-13T02:35:17.462Z,2.80
2022-09-13T02:37:50.778Z,2.90
2022-09-13T02:40:27.345Z,3.10
2022-09-13T02:43:06.765Z,2.50
2022-09-13T02:45:42.800Z,2.70
2022-09-13T02:48:16.505Z,2.67
2022-09-13T02:50:51.989Z,2.47
2022-09-13T02:53:29.104Z,2.70
2022-09-13T02:56:14.225Z,2.77
2022-09-13T02:58:47.225Z,2.93
2022-09-13T03:01:16.318Z,3.20
2022-09-13T03:03:47.164Z,3.20
2022-09-13T03:06:24.729Z,2.90
2022-09-13T03:08:53.673Z,2.80
2022-09-13T03:11:37.188Z,2.80
2022-09-13T03:14:21.333Z,3.00
2022-09-13T03:17:06.511Z,2.70
2022-09-13T03:20:05.578Z,2.80
2022-09-13T03:23:11.741Z,3.13
2022-09-13T03:25:55.287Z,3.00
2022-09-13T03:28:36.010Z,3.30
2022-09-13T03:31:09.850Z,2.70
2022-09-13T03:33:48.247Z,3.00
2022-09-13T03:36:22.914Z,2.80
2022-09-13T03:39:01.719Z,2.57
2022-09-13T03:41:35.913Z,3.30
2022-09-13T03:44:08.109Z,3.10
2022-09-13T03:46:39.875Z,2.97
2022-09-13T03:49:10.348Z,3.07
2022-09-13T03:51:42.242Z,3.30
2022-09-13T03:54:18.417Z,3.07
2022-09-13T03:57:10.073Z,3.40
2022-09-13T03:59:40.753Z,3.23
2022-09-13T04:02:12.295Z,3.00
2022-09-13T04:04:44.922Z,3.20
2022-09-13T04:07:15.641Z,3.03
2022-09-13T04:09:46.297Z,2.97
2022-09-13T04:12:15.353Z,2.90
2022-09-13T04:14:45.095Z,3.10
2022-09-13T04:17:14.472Z,3.13
2022-09-13T04:19:47.312Z,3.03
2022-09-13T04:22:19.131Z,2.77
2022-09-13T04:25:02.036Z,2.83
2022-09-13T04:27:31.164Z,2.70
2022-09-13T04:30:04.197Z,2.93
2022-09-13T04:32:38.176Z,3.10
2022-09-13T04:35:22.009Z,3.20
2022-09-13T04:37:53.033Z,3.13
2022-09-13T04:40:26.314Z,3.27
2022-09-13T04:42:59.767Z,3.60
2022-09-13T04:45:28.525Z,3.10
2022-09-13T04:48:00.732Z,3.00
2022-09-13T04:50:35.354Z,3.33
2022-09-13T04:53:10.198Z,3.50
2022-09-13T04:55:46.043Z,3.40
2022-09-13T04:58:23.173Z,2.93
2022-09-13T05:00:56.910Z,3.67
2022-09-13T05:03:28.146Z,3.37
2022-09-13T05:05:56.480Z,3.07
2022-09-13T05:08:24.701Z,3.10
2022-09-13T05:11:11.703Z,3.03
2022-09-13T05:13:40.388Z,3.00
2022-09-13T05:16:15.699Z,2.77
2022-09-13T05:18:53.110Z,3.13
2022-09-13T05:21:23.633Z,3.23
2022-09-13T05:23:58.526Z,3.83
2022-09-13T05:26:37.143Z,3.13
2022-09-13T05:29:08.927Z,3.20
2022-09-13T05:31:45.552Z,3.43
2022-09-13T05:34:18.840Z,3.37
2022-09-13T05:36:54.037Z,3.37
2022-09-13T05:40:00.360Z,3.33
2022-09-13T05:42:19.210Z,3.17
2022-09-13T05:44:52.267Z,3.50
2022-09-13T05:47:20.930Z,3.50
2022-09-13T05:50:09.406Z,2.80
2022-09-13T05:52:47.836Z,3.07
2022-09-13T05:55:19.624Z,3.00
2022-09-13T05:57:59.850Z,3.60
2022-09-13T06:00:36.599Z,3.13
2022-09-13T06:03:14.947Z,3.20
2022-09-13T06:05:43.430Z,3.10
2022-09-13T06:08:25.832Z,3.47
2022-09-13T06:11:08.757Z,3.40
2022-09-13T06:14:01.543Z,3.40
2022-09-13T06:16:35.015Z,3.47
2022-09-13T06:19:11.552Z,3.53
2022-09-13T06:21:49.494Z,3.30
2022-09-13T06:24:40.796Z,3.23
2022-09-13T06:27:16.560Z,3.70
2022-09-13T06:29:49.273Z,3.80
2022-09-13T06:32:25.704Z,3.80
2022-09-13T06:35:01.200Z,3.63
2022-09-13T06:37:30.327Z,3.43
2022-09-13T06:40:02.323Z,3.30
2022-09-13T06:42:35.244Z,3.50
2022-09-13T06:45:13.901Z,3.00
2022-09-13T06:47:47.735Z,3.40
2022-09-13T06:50:19.706Z,3.47
2022-09-13T06:52:48.693Z,3.23
2022-09-13T06:55:17.416Z,3.00
2022-09-13T06:57:55.890Z,3.40
2022-09-13T07:00:42.098Z,2.90
2022-09-13T07:03:18.762Z,3.00
2022-09-13T07:05:54.255Z,2.83
2022-09-13T07:08:23.174Z,2.97
2022-09-13T07:10:52.979Z,2.90
2022-09-13T07:13:26.518Z,2.67
2022-09-13T07:16:13.861Z,2.60
2022-09-13T07:18:42.447Z,2.20
2022-09-13T07:21:13.301Z,2.87
2022-09-13T07:23:44.362Z,2.40
2022-09-13T07:26:15.918Z,2.30
2022-09-13T07:28:50.282Z,2.60
2022-09-13T07:31:25.412Z,2.37
2022-09-13T07:33:56.528Z,2.20
2022-09-13T07:36:30.380Z,2.40
2022-09-13T07:39:15.007Z,2.30
2022-09-13T07:41:46.458Z,2.10
2022-09-13T07:44:15.162Z,2.20
2022-09-13T07:46:45.330Z,2.10
2022-09-13T07:49:20.389Z,2.17
2022-09-13T07:51:51.496Z,2.33
2022-09-13T07:54:25.054Z,2.40
2022-09-13T07:57:18.143Z,2.03
2022-09-13T07:59:46.393Z,2.20
2022-09-13T08:02:21.444Z,2.20
2022-09-13T08:04:53.653Z,2.13
2022-09-13T08:07:22.134Z,2.50
2022-09-13T08:09:57.259Z,3.10
2022-09-13T08:12:26.049Z,2.37
2022-09-13T08:14:54.417Z,2.37
2022-09-13T08:17:24.389Z,2.40
2022-09-13T08:19:54.926Z,2.30
2022-09-13T08:22:32.769Z,2.43
2022-09-13T08:25:03.434Z,2.20
2022-09-13T08:27:34.609Z,2.43
2022-09-13T08:30:03.208Z,2.00
2022-09-13T08:32:33.239Z,2.10
2022-09-13T08:35:04.998Z,2.27
2022-09-13T08:37:37.670Z,1.90
2022-09-13T08:40:07.119Z,2.30
2022-09-13T08:42:47.592Z,2.30
2022-09-13T08:45:16.380Z,2.40
2022-09-13T08:47:52.006Z,2.63
2022-09-13T08:50:23.124Z,2.40
2022-09-13T08:53:10.934Z,2.00
2022-09-13T08:55:50.122Z,2.07
2022-09-13T08:58:38.099Z,2.63
2022-09-13T09:01:13.367Z,2.00
2022-09-13T09:03:49.908Z,1.83
2022-09-13T09:06:24.398Z,2.03
2022-09-13T09:09:00.111Z,2.10
2022-09-13T09:11:36.910Z,2.10
2022-09-13T09:14:16.114Z,1.73
2022-09-13T09:16:53.134Z,1.83
2022-09-13T09:19:34.373Z,1.73
2022-09-13T09:22:07.562Z,1.40
2022-09-13T09:24:44.540Z,1.80
2022-09-13T09:27:19.747Z,1.90
2022-09-13T09:29:54.606Z,1.90
2022-09-13T09:32:39.875Z,2.00
2022-09-13T09:35:17.694Z,1.90
2022-09-13T09:38:02.959Z,1.80
2022-09-13T09:40:38.996Z,1.83
2022-09-13T09:43:27.216Z,2.00
2022-09-13T09:45:58.692Z,2.23
2022-09-13T09:48:34.800Z,1.80
2022-09-13T09:51:10.378Z,1.77
2022-09-13T09:53:43.575Z,1.73
2022-09-13T09:56:22.908Z,1.90
2022-09-13T09:58:53.186Z,1.80
2022-09-13T10:01:26.966Z,1.87
2022-09-13T10:04:04.270Z,1.70
2022-09-13T10:06:34.046Z,1.80
2022-09-13T10:09:07.153Z,1.70
2022-09-13T10:11:45.941Z,1.43
2022-09-13T10:14:42.893Z,1.70
2022-09-13T10:17:24.776Z,1.80
2022-09-13T10:20:00.230Z,1.60
2022-09-13T10:22:38.807Z,1.87
2022-09-13T10:25:16.875Z,1.60
2022-09-13T10:27:52.218Z,1.50
2022-09-13T10:30:34.286Z,1.60
2022-09-13T10:33:04.080Z,1.90
2022-09-13T10:35:32.839Z,1.73
2022-09-13T10:38:02.673Z,1.70
2022-09-13T10:40:34.044Z,1.97
2022-09-13T10:43:07.159Z,1.80
2022-09-13T10:45:36.206Z,2.10
2022-09-13T10:48:20.618Z,2.00
2022-09-13T10:51:06.749Z,1.80
2022-09-13T10:53:39.356Z,2.30
2022-09-13T10:56:20.650Z,1.80
2022-09-13T10:58:52.559Z,1.60
2022-09-13T11:01:40.604Z,1.53
2022-09-13T11:05:01.288Z,1.67
2022-09-13T11:07:59.597Z,1.70
2022-09-13T11:10:40.628Z,1.97
2022-09-13T11:13:19.976Z,1.67
2022-09-13T11:15:56.825Z,1.70
2022-09-13T11:18:46.222Z,1.60
2022-09-13T11:21:36.881Z,1.90
2022-09-13T11:24:21.024Z,1.70
2022-09-13T11:27:04.636Z,1.70
2022-09-13T11:29:51.659Z,2.40
2022-09-13T11:32:33.355Z,1.93
2022-09-13T11:35:20.523Z,2.00
2022-09-13T11:37:59.773Z,1.63
2022-09-13T11:40:40.782Z,1.60
2022-09-13T11:43:44.229Z,1.33
2022-09-13T11:46:25.499Z,1.40
2022-09-13T11:49:25.466Z,1.50
2022-09-13T11:52:04.444Z,1.60
2022-09-13T11:54:48.470Z,1.50
2022-09-13T11:57:20.795Z,1.70
2022-09-13T11:59:55.873Z,1.97
2022-09-13T12:02:30.876Z,1.53
2022-09-13T12:05:21.666Z,2.00
2022-09-13T12:07:54.266Z,1.57
2022-09-13T12:10:26.318Z,1.50
2022-09-13T12:12:57.358Z,1.70
2022-09-13T12:15:37.968Z,1.50
2022-09-13T12:18:15.742Z,1.33
2022-09-13T12:20:49.111Z,1.43
2022-09-13T12:23:22.595Z,1.57
2022-09-13T12:25:56.424Z,1.50
2022-09-13T12:28:29.598Z,1.30
2022-09-13T12:31:03.556Z,1.33
2022-09-13T12:33:32.171Z,1.30
2022-09-13T12:36:41.517Z,1.40
2022-09-13T12:39:32.402Z,1.33
2022-09-13T12:42:34.254Z,1.30
2022-09-13T12:45:17.516Z,1.50
2022-09-13T12:48:12.097Z,1.30
2022-09-13T12:50:57.528Z,1.50
2022-09-13T12:53:56.105Z,1.10
2022-09-13T12:56:36.243Z,1.80
2022-09-13T12:59:36.083Z,1.20
2022-09-13T13:02:26.966Z,1.30
2022-09-13T13:05:01.109Z,1.50
2022-09-13T13:07:40.981Z,1.40
2022-09-13T13:10:27.069Z,1.30
2022-09-13T13:12:55.583Z,1.40
2022-09-13T13:15:56.912Z,1.30
2022-09-13T13:18:30.860Z,1.90
2022-09-13T13:21:30.615Z,1.87
2022-09-13T13:24:38.811Z,1.73
2022-09-13T13:27:39.122Z,1.53
2022-09-13T13:30:36.017Z,1.50
2022-09-13T13:33:07.664Z,1.50
2022-09-13T13:35:36.157Z,1.60
2022-09-13T13:38:52.523Z,1.70
2022-09-13T15:19:46.057Z,1.27
2022-09-13T15:29:43.949Z,1.50
2022-09-13T15:49:34.793Z,1.37
2022-09-13T15:52:19.904Z,1.20
2022-09-13T15:55:16.266Z,1.20
2022-09-13T15:58:31.247Z,1.20
2022-09-13T16:01:07.942Z,1.20
2022-09-13T16:03:36.450Z,1.13
2022-09-13T16:06:04.958Z,1.20
2022-09-13T16:08:33.554Z,1.70
2022-09-13T16:11:08.786Z,1.60
2022-09-13T16:14:29.473Z,1.27
2022-09-13T16:17:17.285Z,1.20
2022-09-13T16:20:23.902Z,1.43
2022-09-13T16:22:52.409Z,1.97
2022-09-13T16:25:21.050Z,1.73
2022-09-13T16:27:55.384Z,1.50
2022-09-13T16:30:27.990Z,1.50
2022-09-13T16:33:00.751Z,1.57
2022-09-13T16:35:33.359Z,1.47
2022-09-13T16:38:01.888Z,1.40
2022-09-13T16:40:41.157Z,1.50
2022-09-13T16:43:10.772Z,1.80
2022-09-13T16:45:45.445Z,1.27
2022-09-13T16:48:26.886Z,1.50
2022-09-13T16:51:13.069Z,1.40
2022-09-13T16:53:46.282Z,1.70
2022-09-13T16:56:18.017Z,1.37
2022-09-13T16:58:52.660Z,1.33
2022-09-13T17:01:32.512Z,1.60
2022-09-13T17:04:03.955Z,1.40
2022-09-13T17:06:33.916Z,1.30
2022-09-13T17:09:05.571Z,1.50
2022-09-13T17:11:38.923Z,1.50
2022-09-13T17:14:18.601Z,1.60
2022-09-13T17:16:52.227Z,1.73
2022-09-13T17:19:31.435Z,1.50
2022-09-13T17:22:10.027Z,1.50
2022-09-13T17:24:40.358Z,2.00
2022-09-13T17:27:12.414Z,1.87
2022-09-13T17:29:40.992Z,1.90
2022-09-13T17:32:10.070Z,1.70
2022-09-13T17:34:39.953Z,1.83
2022-09-13T17:37:08.726Z,1.60
2022-09-13T17:39:39.044Z,1.80
2022-09-13T17:42:09.636Z,1.70
2022-09-13T17:44:38.102Z,1.90
2022-09-13T17:47:08.178Z,1.77
2022-09-13T17:49:36.844Z,1.83
2022-09-13T17:52:08.237Z,1.77
2022-09-13T17:54:36.836Z,2.00
2022-09-13T17:57:05.423Z,2.30
2022-09-13T17:59:34.434Z,1.83
2022-09-13T18:02:05.367Z,2.10
2022-09-13T18:04:34.381Z,2.00
2022-09-13T18:07:04.955Z,1.90
2022-09-13T18:09:35.016Z,2.40
2022-09-13T18:12:04.034Z,2.17
2022-09-13T18:14:34.602Z,2.53
2022-09-13T18:17:03.256Z,2.03
2022-09-13T18:19:45.854Z,2.13
2022-09-13T18:22:22.070Z,2.03
2022-09-13T18:24:58.290Z,2.00
2022-09-13T18:27:27.974Z,2.30
2022-09-13T18:29:59.702Z,2.27
2022-09-13T18:32:31.209Z,2.30
2022-09-13T18:34:59.742Z,2.57
2022-09-13T18:37:28.187Z,2.27
2022-09-13T18:39:58.334Z,2.20
2022-09-13T18:42:30.247Z,2.30
2022-09-13T18:45:07.294Z,2.30
2022-09-13T18:47:35.959Z,2.40
2022-09-13T18:50:08.199Z,2.23
2022-09-13T18:52:43.375Z,2.43
2022-09-13T19:27:57.207Z,2.20
2022-09-13T19:51:22.161Z,2.17
2022-09-13T19:55:02.340Z,2.33
2022-09-13T19:58:08.546Z,2.40
2022-09-13T20:22:32.349Z,2.50
2022-09-13T20:26:07.021Z,2.77
2022-09-13T20:29:49.409Z,2.63
2022-09-13T20:33:07.632Z,2.60
2022-09-13T20:40:47.305Z,2.77
2022-09-13T20:46:14.436Z,3.07
2022-09-13T20:52:20.288Z,2.97
2022-09-13T20:59:39.633Z,3.23
2022-09-13T21:02:55.682Z,3.13
2022-09-13T21:05:53.564Z,3.33
2022-09-13T21:09:23.901Z,3.70
2022-09-13T21:12:00.896Z,2.90
2022-09-13T21:14:37.714Z,3.50
2022-09-13T21:17:06.875Z,3.00
2022-09-13T21:26:57.241Z,3.30
2022-09-13T21:33:30.826Z,3.40
2022-09-13T21:36:41.877Z,3.30
2022-09-13T21:39:42.263Z,3.10
2022-09-13T21:42:36.433Z,3.37
2022-09-13T21:45:20.733Z,3.33
2022-09-13T21:47:57.863Z,3.00
2022-09-13T21:50:41.697Z,3.20
2022-09-13T21:54:30.757Z,3.17
2022-09-13T21:57:50.394Z,3.60
2022-09-13T22:01:22.914Z,3.63
2022-09-13T22:04:09.274Z,3.40
2022-09-13T22:06:51.282Z,3.57
2022-09-13T22:09:29.861Z,3.27
2022-09-13T22:15:42.185Z,3.50
2022-09-13T22:18:26.832Z,3.10
2022-09-13T22:21:28.800Z,2.93
2022-09-13T22:24:15.042Z,3.20
2022-09-13T22:27:18.067Z,2.83
2022-09-13T22:30:12.911Z,3.00
2022-09-13T22:33:12.061Z,3.27
2022-09-13T22:36:14.133Z,2.90
2022-09-13T22:42:24.055Z,2.97
2022-09-13T22:45:40.389Z,2.90
2022-09-13T22:48:32.230Z,3.10
2022-09-13T22:52:03.410Z,3.17
2022-09-13T22:54:44.580Z,2.90
2022-09-13T22:57:38.290Z,2.97
2022-09-13T23:04:15.843Z,2.63
2022-09-13T23:11:35.277Z,3.13
2022-09-13T23:18:09.495Z,3.20
2022-09-13T23:27:34.590Z,3.17
2022-09-13T23:37:20.183Z,3.60
2022-09-13T23:43:28.190Z,3.90
2022-09-13T23:50:18.255Z,4.80
2022-09-13T23:53:12.542Z,4.97
2022-09-13T23:55:57.536Z,5.17
2022-09-13T23:58:35.440Z,5.40
